sensor_id;sensor_type;location;lat;lon;timestamp;temperature;humidity
4964;DHT22;2497;47.410;9.740;2022-12-29T00:00:21;2.40;99.90
4964;DHT22;2497;47.410;9.740;2022-12-29T00:02:49;2.60;99.90
4964;DHT22;2497;47.410;9.740;2022-12-29T00:05:16;2.60;99.90
4964;DHT22;2497;47.410;9.740;2022-12-29T00:07:46;2.60;99.90
4964;DHT22;2497;47.410;9.740;2022-12-29T00:10:14;2.70;99.90
4964;DHT22;2497;47.410;9.740;2022-12-29T00:12:41;2.50;99.90
4964;DHT22;2497;47.410;9.740;2022-12-29T00:15:26;2.40;99.90
4964;DHT22;2497;47.410;9.740;2022-12-29T00:18:06;2.50;99.90
4964;DHT22;2497;47.410;9.740;2022-12-29T00:20:35;2.40;99.90
4964;DHT22;2497;47.410;9.740;2022-12-29T00:23:21;2.50;99.90
4964;DHT22;2497;47.410;9.740;2022-12-29T00:26:12;2.70;99.90
4964;DHT22;2497;47.410;9.740;2022-12-29T00:28:57;2.60;99.90
4964;DHT22;2497;47.410;9.740;2022-12-29T00:31:56;2.60;99.90
4964;DHT22;2497;47.410;9.740;2022-12-29T00:34:46;2.60;99.90
4964;DHT22;2497;47.410;9.740;2022-12-29T00:37:31;2.60;99.90
4964;DHT22;2497;47.410;9.740;2022-12-29T00:40:13;2.50;99.90
4964;DHT22;2497;47.410;9.740;2022-12-29T00:42:58;2.50;99.90
4964;DHT22;2497;47.410;9.740;2022-12-29T00:45:42;2.50;99.90
4964;DHT22;2497;47.410;9.740;2022-12-29T00:48:10;2.70;99.90
4964;DHT22;2497;47.410;9.740;2022-12-29T00:50:37;2.70;99.90
4964;DHT22;2497;47.410;9.740;2022-12-29T00:53:04;2.70;99.90
4964;DHT22;2497;47.410;9.740;2022-12-29T00:55:36;2.70;99.90
4964;DHT22;2497;47.410;9.740;2022-12-29T00:58:04;2.60;99.90
4964;DHT22;2497;47.410;9.740;2022-12-29T01:00:31;2.50;99.90
4964;DHT22;2497;47.410;9.740;2022-12-29T01:02:59;2.50;99.90
4964;DHT22;2497;47.410;9.740;2022-12-29T01:05:26;2.40;99.90
4964;DHT22;2497;47.410;9.740;2022-12-29T01:07:53;2.30;99.90
4964;DHT22;2497;47.410;9.740;2022-12-29T01:10:21;2.30;99.90
4964;DHT22;2497;47.410;9.740;2022-12-29T01:12:49;2.20;99.90
4964;DHT22;2497;47.410;9.740;2022-12-29T01:15:16;2.20;99.90
4964;DHT22;2497;47.410;9.740;2022-12-29T01:17:43;2.20;99.90
4964;DHT22;2497;47.410;9.740;2022-12-29T01:20:11;2.20;99.90
4964;DHT22;2497;47.410;9.740;2022-12-29T01:22:39;2.20;99.90
4964;DHT22;2497;47.410;9.740;2022-12-29T01:25:08;2.20;99.90
4964;DHT22;2497;47.410;9.740;2022-12-29T01:27:36;2.40;99.90
4964;DHT22;2497;47.410;9.740;2022-12-29T01:30:06;2.60;99.90
4964;DHT22;2497;47.410;9.740;2022-12-29T01:32:33;2.70;99.90
4964;DHT22;2497;47.410;9.740;2022-12-29T01:35:01;3.00;99.90
4964;DHT22;2497;47.410;9.740;2022-12-29T01:37:28;3.50;99.90
4964;DHT22;2497;47.410;9.740;2022-12-29T01:39:56;3.90;99.90
4964;DHT22;2497;47.410;9.740;2022-12-29T01:42:24;4.00;99.90
4964;DHT22;2497;47.410;9.740;2022-12-29T01:44:54;4.00;99.90
4964;DHT22;2497;47.410;9.740;2022-12-29T01:47:34;4.00;99.90
4964;DHT22;2497;47.410;9.740;2022-12-29T01:50:07;3.90;99.90
4964;DHT22;2497;47.410;9.740;2022-12-29T01:52:40;3.80;99.90
4964;DHT22;2497;47.410;9.740;2022-12-29T01:55:11;3.90;99.90
4964;DHT22;2497;47.410;9.740;2022-12-29T01:57:41;4.00;99.90
4964;DHT22;2497;47.410;9.740;2022-12-29T02:00:12;4.20;99.90
4964;DHT22;2497;47.410;9.740;2022-12-29T02:02:43;4.40;99.90
4964;DHT22;2497;47.410;9.740;2022-12-29T02:05:16;4.30;99.90
4964;DHT22;2497;47.410;9.740;2022-12-29T02:07:46;4.20;99.90
4964;DHT22;2497;47.410;9.740;2022-12-29T02:10:16;4.10;99.90
4964;DHT22;2497;47.410;9.740;2022-12-29T02:12:45;4.10;99.90
4964;DHT22;2497;47.410;9.740;2022-12-29T02:15:14;3.90;99.90
4964;DHT22;2497;47.410;9.740;2022-12-29T02:17:54;3.80;99.90
4964;DHT22;2497;47.410;9.740;2022-12-29T02:20:56;3.70;99.90
4964;DHT22;2497;47.410;9.740;2022-12-29T02:24:08;3.70;99.90
4964;DHT22;2497;47.410;9.740;2022-12-29T02:30:12;3.80;99.90
4964;DHT22;2497;47.410;9.740;2022-12-29T02:32:51;3.50;99.90
4964;DHT22;2497;47.410;9.740;2022-12-29T02:35:28;3.50;99.90
4964;DHT22;2497;47.410;9.740;2022-12-29T02:38:05;3.50;99.90
4964;DHT22;2497;47.410;9.740;2022-12-29T02:40:41;3.30;99.90
4964;DHT22;2497;47.410;9.740;2022-12-29T02:43:17;3.10;99.90
4964;DHT22;2497;47.410;9.740;2022-12-29T02:45:51;3.10;99.90
4964;DHT22;2497;47.410;9.740;2022-12-29T02:48:25;3.10;99.90
4964;DHT22;2497;47.410;9.740;2022-12-29T02:51:00;3.10;99.90
4964;DHT22;2497;47.410;9.740;2022-12-29T02:53:30;3.00;99.90
4964;DHT22;2497;47.410;9.740;2022-12-29T02:56:16;2.90;99.90
4964;DHT22;2497;47.410;9.740;2022-12-29T02:58:43;2.90;99.90
4964;DHT22;2497;47.410;9.740;2022-12-29T03:01:21;3.00;99.90
4964;DHT22;2497;47.410;9.740;2022-12-29T03:04:12;3.10;99.90
4964;DHT22;2497;47.410;9.740;2022-12-29T03:06:49;3.40;99.90
4964;DHT22;2497;47.410;9.740;2022-12-29T03:09:28;3.70;99.90
4964;DHT22;2497;47.410;9.740;2022-12-29T03:12:00;3.90;99.90
4964;DHT22;2497;47.410;9.740;2022-12-29T03:14:52;4.20;99.90
4964;DHT22;2497;47.410;9.740;2022-12-29T03:17:48;4.50;99.90
4964;DHT22;2497;47.410;9.740;2022-12-29T03:20:24;4.70;99.90
4964;DHT22;2497;47.410;9.740;2022-12-29T03:22:58;4.70;99.90
4964;DHT22;2497;47.410;9.740;2022-12-29T03:25:30;4.90;99.90
4964;DHT22;2497;47.410;9.740;2022-12-29T03:28:02;5.00;99.90
4964;DHT22;2497;47.410;9.740;2022-12-29T03:30:32;5.10;99.90
4964;DHT22;2497;47.410;9.740;2022-12-29T03:33:03;5.20;99.90
4964;DHT22;2497;47.410;9.740;2022-12-29T03:35:36;5.30;99.90
4964;DHT22;2497;47.410;9.740;2022-12-29T03:38:09;5.30;99.90
4964;DHT22;2497;47.410;9.740;2022-12-29T03:40:39;5.30;99.90
4964;DHT22;2497;47.410;9.740;2022-12-29T03:43:07;5.20;99.90
4964;DHT22;2497;47.410;9.740;2022-12-29T03:45:38;5.20;99.90
4964;DHT22;2497;47.410;9.740;2022-12-29T03:48:05;5.10;99.90
4964;DHT22;2497;47.410;9.740;2022-12-29T03:50:35;5.10;99.90
4964;DHT22;2497;47.410;9.740;2022-12-29T03:53:02;5.10;99.90
4964;DHT22;2497;47.410;9.740;2022-12-29T03:55:30;5.10;99.90
4964;DHT22;2497;47.410;9.740;2022-12-29T03:57:58;5.10;99.90
4964;DHT22;2497;47.410;9.740;2022-12-29T04:00:25;5.00;99.90
4964;DHT22;2497;47.410;9.740;2022-12-29T04:02:53;5.00;99.90
4964;DHT22;2497;47.410;9.740;2022-12-29T04:05:21;4.90;99.90
4964;DHT22;2497;47.410;9.740;2022-12-29T04:07:50;4.90;99.90
4964;DHT22;2497;47.410;9.740;2022-12-29T04:10:17;5.00;99.90
4964;DHT22;2497;47.410;9.740;2022-12-29T04:12:45;5.00;99.90
4964;DHT22;2497;47.410;9.740;2022-12-29T04:15:12;5.10;99.90
4964;DHT22;2497;47.410;9.740;2022-12-29T04:17:40;5.10;99.90
4964;DHT22;2497;47.410;9.740;2022-12-29T04:20:08;5.10;99.90
4964;DHT22;2497;47.410;9.740;2022-12-29T04:22:59;5.00;99.90
4964;DHT22;2497;47.410;9.740;2022-12-29T04:25:27;4.90;99.90
4964;DHT22;2497;47.410;9.740;2022-12-29T04:27:54;4.90;99.90
4964;DHT22;2497;47.410;9.740;2022-12-29T04:30:22;4.90;99.90
4964;DHT22;2497;47.410;9.740;2022-12-29T04:32:49;4.80;99.90
4964;DHT22;2497;47.410;9.740;2022-12-29T04:35:17;4.80;99.90
4964;DHT22;2497;47.410;9.740;2022-12-29T04:37:44;4.80;99.90
4964;DHT22;2497;47.410;9.740;2022-12-29T04:40:13;4.80;99.90
4964;DHT22;2497;47.410;9.740;2022-12-29T04:42:41;4.70;99.90
4964;DHT22;2497;47.410;9.740;2022-12-29T04:45:09;4.70;99.90
4964;DHT22;2497;47.410;9.740;2022-12-29T04:47:36;4.70;99.90
4964;DHT22;2497;47.410;9.740;2022-12-29T04:50:04;4.70;99.90
4964;DHT22;2497;47.410;9.740;2022-12-29T04:52:32;4.70;99.90
4964;DHT22;2497;47.410;9.740;2022-12-29T04:54:59;4.70;99.90
4964;DHT22;2497;47.410;9.740;2022-12-29T04:57:28;4.70;99.90
4964;DHT22;2497;47.410;9.740;2022-12-29T04:59:55;4.70;99.90
4964;DHT22;2497;47.410;9.740;2022-12-29T05:02:23;4.70;99.90
4964;DHT22;2497;47.410;9.740;2022-12-29T05:04:50;4.70;99.90
4964;DHT22;2497;47.410;9.740;2022-12-29T05:07:18;4.70;99.90
4964;DHT22;2497;47.410;9.740;2022-12-29T05:09:46;4.60;99.90
4964;DHT22;2497;47.410;9.740;2022-12-29T05:12:13;4.60;99.90
4964;DHT22;2497;47.410;9.740;2022-12-29T05:14:43;4.50;99.90
4964;DHT22;2497;47.410;9.740;2022-12-29T05:17:10;4.50;99.90
4964;DHT22;2497;47.410;9.740;2022-12-29T05:19:38;4.40;99.90
4964;DHT22;2497;47.410;9.740;2022-12-29T05:22:05;4.50;99.90
4964;DHT22;2497;47.410;9.740;2022-12-29T05:24:33;4.50;99.90
4964;DHT22;2497;47.410;9.740;2022-12-29T05:27:00;4.50;99.90
4964;DHT22;2497;47.410;9.740;2022-12-29T05:29:28;4.50;99.90
4964;DHT22;2497;47.410;9.740;2022-12-29T05:31:57;4.50;99.90
4964;DHT22;2497;47.410;9.740;2022-12-29T05:34:24;4.50;99.90
4964;DHT22;2497;47.410;9.740;2022-12-29T05:36:52;4.60;99.90
4964;DHT22;2497;47.410;9.740;2022-12-29T05:39:20;4.50;99.90
4964;DHT22;2497;47.410;9.740;2022-12-29T05:41:48;4.50;99.90
4964;DHT22;2497;47.410;9.740;2022-12-29T05:44:16;4.50;99.90
4964;DHT22;2497;47.410;9.740;2022-12-29T05:46:43;4.40;99.90
4964;DHT22;2497;47.410;9.740;2022-12-29T05:49:13;4.40;99.90
4964;DHT22;2497;47.410;9.740;2022-12-29T05:51:40;4.30;99.90
4964;DHT22;2497;47.410;9.740;2022-12-29T05:54:08;4.30;99.90
4964;DHT22;2497;47.410;9.740;2022-12-29T05:56:35;4.30;99.90
4964;DHT22;2497;47.410;9.740;2022-12-29T05:59:02;4.20;99.90
4964;DHT22;2497;47.410;9.740;2022-12-29T06:01:30;4.10;99.90
4964;DHT22;2497;47.410;9.740;2022-12-29T06:03:59;4.00;99.90
4964;DHT22;2497;47.410;9.740;2022-12-29T06:06:27;3.90;99.90
4964;DHT22;2497;47.410;9.740;2022-12-29T06:08:55;3.90;99.90
4964;DHT22;2497;47.410;9.740;2022-12-29T06:11:23;3.90;99.90
4964;DHT22;2497;47.410;9.740;2022-12-29T06:13:50;3.90;99.90
4964;DHT22;2497;47.410;9.740;2022-12-29T06:16:17;3.90;99.90
4964;DHT22;2497;47.410;9.740;2022-12-29T06:18:45;3.90;99.90
4964;DHT22;2497;47.410;9.740;2022-12-29T06:21:13;3.90;99.90
4964;DHT22;2497;47.410;9.740;2022-12-29T06:23:42;4.00;99.90
4964;DHT22;2497;47.410;9.740;2022-12-29T06:26:09;4.10;99.90
4964;DHT22;2497;47.410;9.740;2022-12-29T06:28:37;4.20;99.90
4964;DHT22;2497;47.410;9.740;2022-12-29T06:31:04;4.40;99.90
4964;DHT22;2497;47.410;9.740;2022-12-29T06:33:32;4.40;99.90
4964;DHT22;2497;47.410;9.740;2022-12-29T06:35:59;4.40;99.90
4964;DHT22;2497;47.410;9.740;2022-12-29T06:38:27;4.50;99.90
4964;DHT22;2497;47.410;9.740;2022-12-29T06:40:56;4.40;99.90
4964;DHT22;2497;47.410;9.740;2022-12-29T06:43:23;4.40;99.90
4964;DHT22;2497;47.410;9.740;2022-12-29T06:45:50;4.20;99.90
4964;DHT22;2497;47.410;9.740;2022-12-29T06:48:18;4.10;99.90
4964;DHT22;2497;47.410;9.740;2022-12-29T06:50:45;4.10;99.90
4964;DHT22;2497;47.410;9.740;2022-12-29T06:53:13;4.00;99.90
4964;DHT22;2497;47.410;9.740;2022-12-29T06:55:41;4.10;99.90
4964;DHT22;2497;47.410;9.740;2022-12-29T06:58:10;4.00;99.90
4964;DHT22;2497;47.410;9.740;2022-12-29T07:00:38;4.00;99.90
4964;DHT22;2497;47.410;9.740;2022-12-29T07:03:06;4.00;99.90
4964;DHT22;2497;47.410;9.740;2022-12-29T07:05:33;4.00;99.90
4964;DHT22;2497;47.410;9.740;2022-12-29T07:08:01;4.00;99.90
4964;DHT22;2497;47.410;9.740;2022-12-29T07:10:29;4.10;99.90
4964;DHT22;2497;47.410;9.740;2022-12-29T07:12:56;4.10;99.90
4964;DHT22;2497;47.410;9.740;2022-12-29T07:15:25;4.30;99.90
4964;DHT22;2497;47.410;9.740;2022-12-29T07:17:52;4.40;99.90
4964;DHT22;2497;47.410;9.740;2022-12-29T07:20:20;4.50;99.90
4964;DHT22;2497;47.410;9.740;2022-12-29T07:22:47;4.50;99.90
4964;DHT22;2497;47.410;9.740;2022-12-29T07:25:15;4.70;99.90
4964;DHT22;2497;47.410;9.740;2022-12-29T07:27:43;4.80;99.90
4964;DHT22;2497;47.410;9.740;2022-12-29T07:30:11;4.90;99.90
4964;DHT22;2497;47.410;9.740;2022-12-29T07:32:41;4.90;99.90
4964;DHT22;2497;47.410;9.740;2022-12-29T07:35:08;5.00;99.90
4964;DHT22;2497;47.410;9.740;2022-12-29T07:37:36;5.10;99.90
4964;DHT22;2497;47.410;9.740;2022-12-29T07:40:04;5.20;99.90
4964;DHT22;2497;47.410;9.740;2022-12-29T07:42:31;5.20;99.90
4964;DHT22;2497;47.410;9.740;2022-12-29T07:44:58;5.30;99.90
4964;DHT22;2497;47.410;9.740;2022-12-29T07:47:27;5.40;99.90
4964;DHT22;2497;47.410;9.740;2022-12-29T07:49:56;5.50;99.90
4964;DHT22;2497;47.410;9.740;2022-12-29T07:52:23;5.60;99.90
4964;DHT22;2497;47.410;9.740;2022-12-29T07:54:51;5.70;99.90
4964;DHT22;2497;47.410;9.740;2022-12-29T07:57:18;5.70;99.90
4964;DHT22;2497;47.410;9.740;2022-12-29T07:59:46;5.90;99.90
4964;DHT22;2497;47.410;9.740;2022-12-29T08:02:13;5.90;99.90
4964;DHT22;2497;47.410;9.740;2022-12-29T08:04:40;6.10;99.90
4964;DHT22;2497;47.410;9.740;2022-12-29T08:07:09;6.30;99.90
4964;DHT22;2497;47.410;9.740;2022-12-29T08:09:36;6.40;99.90
4964;DHT22;2497;47.410;9.740;2022-12-29T08:12:04;6.50;99.90
4964;DHT22;2497;47.410;9.740;2022-12-29T08:14:32;6.60;99.90
4964;DHT22;2497;47.410;9.740;2022-12-29T08:16:59;6.70;99.90
4964;DHT22;2497;47.410;9.740;2022-12-29T08:19:27;6.80;99.90
4964;DHT22;2497;47.410;9.740;2022-12-29T08:21:55;7.00;99.90
4964;DHT22;2497;47.410;9.740;2022-12-29T08:24:24;7.00;99.90
4964;DHT22;2497;47.410;9.740;2022-12-29T08:26:51;7.00;99.90
4964;DHT22;2497;47.410;9.740;2022-12-29T08:29:19;7.10;99.90
4964;DHT22;2497;47.410;9.740;2022-12-29T08:31:47;7.20;99.90
4964;DHT22;2497;47.410;9.740;2022-12-29T08:34:14;7.20;99.90
4964;DHT22;2497;47.410;9.740;2022-12-29T08:36:42;7.30;99.90
4964;DHT22;2497;47.410;9.740;2022-12-29T08:39:09;7.40;99.90
4964;DHT22;2497;47.410;9.740;2022-12-29T08:41:39;7.40;99.90
4964;DHT22;2497;47.410;9.740;2022-12-29T08:44:07;7.40;99.90
4964;DHT22;2497;47.410;9.740;2022-12-29T08:46:35;7.40;99.90
4964;DHT22;2497;47.410;9.740;2022-12-29T08:49:03;7.60;99.90
4964;DHT22;2497;47.410;9.740;2022-12-29T08:51:30;7.60;99.90
4964;DHT22;2497;47.410;9.740;2022-12-29T08:53:59;7.60;99.90
4964;DHT22;2497;47.410;9.740;2022-12-29T08:56:27;7.70;99.90
4964;DHT22;2497;47.410;9.740;2022-12-29T08:58:57;7.70;99.90
4964;DHT22;2497;47.410;9.740;2022-12-29T09:01:24;7.70;99.90
4964;DHT22;2497;47.410;9.740;2022-12-29T09:03:53;7.80;99.90
4964;DHT22;2497;47.410;9.740;2022-12-29T09:06:20;7.80;99.90
4964;DHT22;2497;47.410;9.740;2022-12-29T09:08:48;7.80;99.90
4964;DHT22;2497;47.410;9.740;2022-12-29T09:11:17;7.90;99.90
4964;DHT22;2497;47.410;9.740;2022-12-29T09:13:45;8.00;99.90
4964;DHT22;2497;47.410;9.740;2022-12-29T09:16:14;8.00;99.90
4964;DHT22;2497;47.410;9.740;2022-12-29T09:18:42;8.00;99.90
4964;DHT22;2497;47.410;9.740;2022-12-29T09:21:11;8.00;99.90
4964;DHT22;2497;47.410;9.740;2022-12-29T09:23:39;8.10;99.90
4964;DHT22;2497;47.410;9.740;2022-12-29T09:26:07;8.20;99.90
4964;DHT22;2497;47.410;9.740;2022-12-29T09:28:37;8.30;99.90
4964;DHT22;2497;47.410;9.740;2022-12-29T09:31:05;8.50;99.90
4964;DHT22;2497;47.410;9.740;2022-12-29T09:33:37;8.60;99.90
4964;DHT22;2497;47.410;9.740;2022-12-29T09:36:05;8.70;99.90
4964;DHT22;2497;47.410;9.740;2022-12-29T09:38:33;8.80;99.90
4964;DHT22;2497;47.410;9.740;2022-12-29T09:41:06;9.00;99.90
4964;DHT22;2497;47.410;9.740;2022-12-29T09:43:55;9.00;99.90
4964;DHT22;2497;47.410;9.740;2022-12-29T09:46:26;9.00;99.90
4964;DHT22;2497;47.410;9.740;2022-12-29T09:49:05;9.10;99.90
4964;DHT22;2497;47.410;9.740;2022-12-29T09:51:36;9.20;99.90
4964;DHT22;2497;47.410;9.740;2022-12-29T09:54:22;9.30;99.90
4964;DHT22;2497;47.410;9.740;2022-12-29T09:56:52;9.40;99.90
4964;DHT22;2497;47.410;9.740;2022-12-29T09:59:22;9.70;99.90
4964;DHT22;2497;47.410;9.740;2022-12-29T10:01:55;9.60;99.90
4964;DHT22;2497;47.410;9.740;2022-12-29T10:04:27;9.50;99.90
4964;DHT22;2497;47.410;9.740;2022-12-29T10:06:59;9.60;99.90
4964;DHT22;2497;47.410;9.740;2022-12-29T10:09:35;9.60;99.90
4964;DHT22;2497;47.410;9.740;2022-12-29T10:12:14;9.70;99.90
4964;DHT22;2497;47.410;9.740;2022-12-29T10:14:58;9.70;99.90
4964;DHT22;2497;47.410;9.740;2022-12-29T10:17:35;9.80;99.90
4964;DHT22;2497;47.410;9.740;2022-12-29T10:20:23;9.70;99.90
4964;DHT22;2497;47.410;9.740;2022-12-29T10:23:05;9.70;99.90
4964;DHT22;2497;47.410;9.740;2022-12-29T10:25:39;9.60;99.90
4964;DHT22;2497;47.410;9.740;2022-12-29T10:28:15;9.60;99.90
4964;DHT22;2497;47.410;9.740;2022-12-29T10:30:47;9.70;99.90
4964;DHT22;2497;47.410;9.740;2022-12-29T10:33:19;9.80;99.90
4964;DHT22;2497;47.410;9.740;2022-12-29T10:35:51;9.90;99.90
4964;DHT22;2497;47.410;9.740;2022-12-29T10:38:25;10.10;99.90
4964;DHT22;2497;47.410;9.740;2022-12-29T10:40:58;10.20;99.90
4964;DHT22;2497;47.410;9.740;2022-12-29T10:43:29;10.30;99.90
4964;DHT22;2497;47.410;9.740;2022-12-29T10:45:58;10.40;99.90
4964;DHT22;2497;47.410;9.740;2022-12-29T10:48:30;10.40;99.90
4964;DHT22;2497;47.410;9.740;2022-12-29T10:51:00;10.40;99.90
4964;DHT22;2497;47.410;9.740;2022-12-29T10:53:35;10.40;99.90
4964;DHT22;2497;47.410;9.740;2022-12-29T10:56:12;10.40;99.90
4964;DHT22;2497;47.410;9.740;2022-12-29T10:58:43;10.60;99.90
4964;DHT22;2497;47.410;9.740;2022-12-29T11:01:13;10.70;99.90
4964;DHT22;2497;47.410;9.740;2022-12-29T11:03:50;10.90;99.90
4964;DHT22;2497;47.410;9.740;2022-12-29T11:06:27;11.30;99.90
4964;DHT22;2497;47.410;9.740;2022-12-29T11:08:57;11.80;99.90
4964;DHT22;2497;47.410;9.740;2022-12-29T11:11:28;12.20;99.90
4964;DHT22;2497;47.410;9.740;2022-12-29T11:14:07;12.30;99.90
4964;DHT22;2497;47.410;9.740;2022-12-29T11:16:37;12.40;99.90
4964;DHT22;2497;47.410;9.740;2022-12-29T11:19:20;12.70;99.90
4964;DHT22;2497;47.410;9.740;2022-12-29T11:21:50;13.10;99.90
4964;DHT22;2497;47.410;9.740;2022-12-29T11:24:23;13.40;99.90
4964;DHT22;2497;47.410;9.740;2022-12-29T11:26:52;13.50;99.90
4964;DHT22;2497;47.410;9.740;2022-12-29T11:29:27;13.50;99.90
4964;DHT22;2497;47.410;9.740;2022-12-29T11:31:57;13.20;99.90
4964;DHT22;2497;47.410;9.740;2022-12-29T11:34:26;13.30;99.90
4964;DHT22;2497;47.410;9.740;2022-12-29T11:37:03;13.20;99.90
4964;DHT22;2497;47.410;9.740;2022-12-29T11:39:35;13.20;99.90
4964;DHT22;2497;47.410;9.740;2022-12-29T11:42:05;13.20;99.90
4964;DHT22;2497;47.410;9.740;2022-12-29T11:44:38;13.10;99.90
4964;DHT22;2497;47.410;9.740;2022-12-29T11:47:13;13.10;99.90
4964;DHT22;2497;47.410;9.740;2022-12-29T11:49:41;13.50;99.90
4964;DHT22;2497;47.410;9.740;2022-12-29T11:52:24;13.40;99.90
4964;DHT22;2497;47.410;9.740;2022-12-29T11:54:53;13.30;99.90
4964;DHT22;2497;47.410;9.740;2022-12-29T11:57:22;13.20;99.90
4964;DHT22;2497;47.410;9.740;2022-12-29T11:59:52;13.10;99.90
4964;DHT22;2497;47.410;9.740;2022-12-29T12:02:40;13.10;99.90
4964;DHT22;2497;47.410;9.740;2022-12-29T12:05:20;13.20;99.90
4964;DHT22;2497;47.410;9.740;2022-12-29T12:07:56;13.40;99.90
4964;DHT22;2497;47.410;9.740;2022-12-29T12:10:28;13.60;99.90
4964;DHT22;2497;47.410;9.740;2022-12-29T12:13:02;13.60;99.90
4964;DHT22;2497;47.410;9.740;2022-12-29T12:15:36;13.50;99.90
4964;DHT22;2497;47.410;9.740;2022-12-29T12:18:09;13.50;99.90
4964;DHT22;2497;47.410;9.740;2022-12-29T12:20:50;13.40;99.90
4964;DHT22;2497;47.410;9.740;2022-12-29T12:23:28;13.20;99.90
4964;DHT22;2497;47.410;9.740;2022-12-29T12:26:02;13.10;99.90
4964;DHT22;2497;47.410;9.740;2022-12-29T12:28:37;13.00;99.90
4964;DHT22;2497;47.410;9.740;2022-12-29T12:31:18;13.10;99.90
4964;DHT22;2497;47.410;9.740;2022-12-29T12:33:49;13.20;99.90
4964;DHT22;2497;47.410;9.740;2022-12-29T12:36:32;13.20;99.90
4964;DHT22;2497;47.410;9.740;2022-12-29T12:39:11;13.20;99.90
4964;DHT22;2497;47.410;9.740;2022-12-29T12:41:50;13.40;99.90
4964;DHT22;2497;47.410;9.740;2022-12-29T12:44:27;13.40;99.90
4964;DHT22;2497;47.410;9.740;2022-12-29T12:47:14;13.40;99.90
4964;DHT22;2497;47.410;9.740;2022-12-29T12:50:06;13.50;99.90
4964;DHT22;2497;47.410;9.740;2022-12-29T12:52:47;13.30;99.90
4964;DHT22;2497;47.410;9.740;2022-12-29T12:58:20;13.20;99.90
4964;DHT22;2497;47.410;9.740;2022-12-29T13:00:59;13.10;99.90
4964;DHT22;2497;47.410;9.740;2022-12-29T13:03:38;12.90;99.90
4964;DHT22;2497;47.410;9.740;2022-12-29T13:06:18;12.80;99.90
4964;DHT22;2497;47.410;9.740;2022-12-29T13:09:12;12.80;99.90
4964;DHT22;2497;47.410;9.740;2022-12-29T13:11:54;12.80;99.90
4964;DHT22;2497;47.410;9.740;2022-12-29T13:14:34;12.70;99.90
4964;DHT22;2497;47.410;9.740;2022-12-29T13:17:11;12.80;99.90
4964;DHT22;2497;47.410;9.740;2022-12-29T13:19:45;12.80;99.90
4964;DHT22;2497;47.410;9.740;2022-12-29T13:22:21;12.70;99.90
4964;DHT22;2497;47.410;9.740;2022-12-29T13:25:06;12.70;99.90
4964;DHT22;2497;47.410;9.740;2022-12-29T13:27:47;12.70;99.90
4964;DHT22;2497;47.410;9.740;2022-12-29T13:30:18;12.60;99.90
4964;DHT22;2497;47.410;9.740;2022-12-29T13:32:58;12.50;99.90
4964;DHT22;2497;47.410;9.740;2022-12-29T13:35:43;12.50;99.90
4964;DHT22;2497;47.410;9.740;2022-12-29T13:38:15;12.30;99.90
4964;DHT22;2497;47.410;9.740;2022-12-29T13:40:49;12.20;99.90
4964;DHT22;2497;47.410;9.740;2022-12-29T13:43:19;12.10;99.90
4964;DHT22;2497;47.410;9.740;2022-12-29T13:46:02;12.10;99.90
4964;DHT22;2497;47.410;9.740;2022-12-29T13:48:38;11.90;99.90
4964;DHT22;2497;47.410;9.740;2022-12-29T13:51:08;11.80;99.90
4964;DHT22;2497;47.410;9.740;2022-12-29T13:53:42;11.60;99.90
4964;DHT22;2497;47.410;9.740;2022-12-29T13:56:19;11.50;99.90
4964;DHT22;2497;47.410;9.740;2022-12-29T13:58:55;11.40;99.90
4964;DHT22;2497;47.410;9.740;2022-12-29T14:01:28;11.40;99.90
4964;DHT22;2497;47.410;9.740;2022-12-29T14:03:58;11.30;99.90
4964;DHT22;2497;47.410;9.740;2022-12-29T14:06:29;11.40;99.90
4964;DHT22;2497;47.410;9.740;2022-12-29T14:08:59;11.30;99.90
4964;DHT22;2497;47.410;9.740;2022-12-29T14:11:31;11.30;99.90
4964;DHT22;2497;47.410;9.740;2022-12-29T14:14:11;11.30;99.90
4964;DHT22;2497;47.410;9.740;2022-12-29T14:16:40;11.20;99.90
4964;DHT22;2497;47.410;9.740;2022-12-29T14:19:14;11.20;99.90
4964;DHT22;2497;47.410;9.740;2022-12-29T14:21:51;11.10;99.90
4964;DHT22;2497;47.410;9.740;2022-12-29T14:24:40;11.00;99.90
4964;DHT22;2497;47.410;9.740;2022-12-29T14:30:47;11.00;99.90
4964;DHT22;2497;47.410;9.740;2022-12-29T14:33:16;11.00;99.90
4964;DHT22;2497;47.410;9.740;2022-12-29T14:35:46;11.00;99.90
4964;DHT22;2497;47.410;9.740;2022-12-29T14:38:24;11.00;99.90
4964;DHT22;2497;47.410;9.740;2022-12-29T14:40:53;10.90;99.90
4964;DHT22;2497;47.410;9.740;2022-12-29T14:43:39;11.00;99.90
4964;DHT22;2497;47.410;9.740;2022-12-29T14:46:09;10.90;99.90
4964;DHT22;2497;47.410;9.740;2022-12-29T14:48:39;10.90;99.90
4964;DHT22;2497;47.410;9.740;2022-12-29T14:51:31;10.80;99.90
4964;DHT22;2497;47.410;9.740;2022-12-29T14:53:59;10.80;99.90
4964;DHT22;2497;47.410;9.740;2022-12-29T14:56:28;10.70;99.90
4964;DHT22;2497;47.410;9.740;2022-12-29T14:59:00;10.60;99.90
4964;DHT22;2497;47.410;9.740;2022-12-29T15:01:38;10.50;99.90
4964;DHT22;2497;47.410;9.740;2022-12-29T15:04:17;10.40;99.90
4964;DHT22;2497;47.410;9.740;2022-12-29T15:06:46;10.40;99.90
4964;DHT22;2497;47.410;9.740;2022-12-29T15:09:23;10.40;99.90
4964;DHT22;2497;47.410;9.740;2022-12-29T15:11:53;10.50;99.90
4964;DHT22;2497;47.410;9.740;2022-12-29T15:14:34;10.60;99.90
4964;DHT22;2497;47.410;9.740;2022-12-29T15:17:10;10.50;99.90
4964;DHT22;2497;47.410;9.740;2022-12-29T15:19:38;10.40;99.90
4964;DHT22;2497;47.410;9.740;2022-12-29T15:22:05;10.30;99.90
4964;DHT22;2497;47.410;9.740;2022-12-29T15:24:34;10.20;99.90
4964;DHT22;2497;47.410;9.740;2022-12-29T15:27:03;10.20;99.90
4964;DHT22;2497;47.410;9.740;2022-12-29T15:29:36;10.20;99.90
4964;DHT22;2497;47.410;9.740;2022-12-29T15:32:20;10.20;99.90
4964;DHT22;2497;47.410;9.740;2022-12-29T15:34:49;10.10;99.90
4964;DHT22;2497;47.410;9.740;2022-12-29T15:37:22;10.20;99.90
4964;DHT22;2497;47.410;9.740;2022-12-29T15:39:51;10.20;99.90
4964;DHT22;2497;47.410;9.740;2022-12-29T15:45:11;10.10;99.90
4964;DHT22;2497;47.410;9.740;2022-12-29T15:47:43;10.00;99.90
4964;DHT22;2497;47.410;9.740;2022-12-29T15:50:20;9.90;99.90
4964;DHT22;2497;47.410;9.740;2022-12-29T15:52:49;9.80;99.90
4964;DHT22;2497;47.410;9.740;2022-12-29T15:55:20;9.70;99.90
4964;DHT22;2497;47.410;9.740;2022-12-29T15:57:49;9.60;99.90
4964;DHT22;2497;47.410;9.740;2022-12-29T16:00:25;9.60;99.90
4964;DHT22;2497;47.410;9.740;2022-12-29T16:02:57;9.60;99.90
4964;DHT22;2497;47.410;9.740;2022-12-29T16:05:32;9.50;99.90
4964;DHT22;2497;47.410;9.740;2022-12-29T16:08:00;9.60;99.90
4964;DHT22;2497;47.410;9.740;2022-12-29T16:10:32;9.60;99.90
4964;DHT22;2497;47.410;9.740;2022-12-29T16:13:10;9.60;99.90
4964;DHT22;2497;47.410;9.740;2022-12-29T16:15:40;9.50;99.90
4964;DHT22;2497;47.410;9.740;2022-12-29T16:18:21;9.30;99.90
4964;DHT22;2497;47.410;9.740;2022-12-29T16:20:51;9.30;99.90
4964;DHT22;2497;47.410;9.740;2022-12-29T16:23:22;9.20;99.90
4964;DHT22;2497;47.410;9.740;2022-12-29T16:25:53;9.20;99.90
4964;DHT22;2497;47.410;9.740;2022-12-29T16:28:30;9.10;99.90
4964;DHT22;2497;47.410;9.740;2022-12-29T16:31:03;9.00;99.90
4964;DHT22;2497;47.410;9.740;2022-12-29T16:33:45;9.10;99.90
4964;DHT22;2497;47.410;9.740;2022-12-29T16:36:27;9.10;99.90
4964;DHT22;2497;47.410;9.740;2022-12-29T16:39:19;9.20;99.90
4964;DHT22;2497;47.410;9.740;2022-12-29T16:41:49;9.20;99.90
4964;DHT22;2497;47.410;9.740;2022-12-29T16:44:17;9.30;99.90
4964;DHT22;2497;47.410;9.740;2022-12-29T16:49:43;9.30;99.90
4964;DHT22;2497;47.410;9.740;2022-12-29T16:52:13;9.20;99.90
4964;DHT22;2497;47.410;9.740;2022-12-29T16:54:49;9.20;99.90
4964;DHT22;2497;47.410;9.740;2022-12-29T16:57:22;9.10;99.90
4964;DHT22;2497;47.410;9.740;2022-12-29T16:59:52;9.00;99.90